Search flights

Paros Airport, Paros (LGPA)

Airport Weather & NOTAM's

METAR for:LGPA (Paros/Kratikos Arpt, K, GR)
Text:LGPA 231450Z 33009KT CAVOK 27/16 Q1005
Conditions at:1450 UTC 23 Jun 2024
Temperature: 27.0°C ( 81°F)
Dewpoint: 16.0°C ( 61°F) [RH = 51%]
Pressure (altimeter):29.68 inches Hg (1005.0 mb)
Winds:from the NNW (330 degrees) at 10 MPH (9 knots; 4.6 m/s)
Visibility:6 or more sm (10+ km)
Ceiling:ceiling and visibility are OK
Clouds:unknown

Live Departures & Arrivals

There are currently no arrivals or departures for this airport.

Departures History (last 12 months)

Flight No. Dest. Aircraft Date
MSE12LG LGSR Cessna Sky... 2024-06-18 02:48:48
MSE5848 LGSR Black Squa... 2024-05-17 05:21:17

Arrivals History (last 12 months)

Flight No. Origin Aircraft Date
MSE11LG LGNX Pipistrel... 2024-06-18 02:40:32
MSE4567 LGNX Kodiak 100... 2024-05-15 10:54:35

Runway Information (Airport elevation: 125ft)

Runway 17 Length 2,611ft Width 66ft Elevation 112ft Surface Bituminous Heading 173
Runway 35 Length 2,611ft Width 66ft Elevation 112ft Surface Bituminous Heading 353

Airport Frequencies

Type UC Frequency 125.050 Mhz
Type UC Frequency 119.750 Mhz
Type UC Frequency 124.025 Mhz
Type UC Frequency 130.925 Mhz

Airport Navaids

No navaids to display.